Airfield :
LOGIN :

Register | Disclaimer

   EN    FR    IT 

 










Legend :    VFR   Marginal VFR   IFR   Intensive IFR   Very Intensive IFR
Visi :
Ceiling :
>= 8 km
>= 3000ft
5 to 8 km
1000 to 3000 ft
1500m to 5 km
500 to 1000 ft
800 to 1500m
200 to 500 ft
< 800m
< 200 ft
Symbols :   Thunderstorms  Fog  Heavy snow  Heavy precipitations  Wind > 20 kt
SIGMETs :     Misc.  Thunderstorms  Icing  Turbulence  Mountain Waves  Volcanic Ashes







- Airport Elevation : 1487 ft
- IATA code : MUC


EDDM - München Franz Josef Strauss

CURRENT METAR :
  • 192320Z VRB01KT CAVOK 15/13 Q1011 NOSIG

EXPIRED METARs :
  • 192250Z VRB01KT CAVOK 16/14 Q1011 NOSIG
  • 192220Z 04002KT CAVOK 16/14 Q1011 NOSIG
  • 192150Z VRB02KT CAVOK 17/13 Q1011 NOSIG
  • 192120Z VRB01KT CAVOK 18/14 Q1011 NOSIG
  • 192050Z 32002KT CAVOK 19/13 Q1011 NOSIG

TAF TAF EDDM
Valid from the 19 at 18:00 until the 21 at 00:00 UTC


191700Z 1918/2024 25005KT CAVOK
PROB30
TEMPO 2005/2007 TSRA BKN040CB
TEMPO 2013/2018 29020G35KT TSRA BKN025CB
No reported NOTAMs for that airfield.



MET'MAP, your aeronautical weather chart ! - Copyright ORBIFLY December 2007 - Disclaimer

ORBIFLY MET'MAP TEAM :

Programming & Development : Alexandra Zaïnal
Concept & Development : Baudouin d'Aumeries
Co-Development & Prog : Marc-Olivier Méhu
Technical & hardware support : Manuel Goepfert

Contact : metmap@orbifly.com




SOURCES & CREDITS :

   NOAA